Terminal Aerodrome Forecast
Issued by NWS Pocatello, ID

Home | Current Version | Previous Version | Text Only | Print | Product List | Glossary On
Versions: 1 2 3 4 5 6 7 8 9 10 11 12
476
FTUS45 KPIH 131730
TAFBYI
TAF
KBYI 131730Z 1318/1418 25012KT P6SM BKN060
     FM132100 27020G30KT P6SM SCT150
     FM140200 25014KT P6SM SCT150
     FM140800 23012KT P6SM VCSH SCT040 BKN090
     FM141300 23013G20KT P6SM -RA BKN025 OVC040=

USA.gov is the U.S. government's official web portal to all federal, state and local government web resources and services.